Lamont, Florida
Current Conditions -  °F | °C
As of 3:15 PM on Thursday 23 Oct 2014 (Local Time) from K40J Reporting Station
Clear Clear  
Wind Chill: 73°   Ceiling: Unl
Heat Index: 73°   Visibility: 10mi
Dew Point: 37°   Wind: 5mph
Humidity: 27%   Direction: 60°ENE
Pressure: 30"   Gusts: NA
Location:  30.38°N, 83.81°W
Report Text: K40J 231915Z AUTO 06004KT 10SM CLR 23/03 A3000 RMK AO2
Loading
Personal Weather Stations






























Interactive Weather Map
Tropical Storm Tracking
New forecast layout! Learn more

10-Day Weather Forecast

Advertisements
Track Severe Weather on mobile